sensor_id;sensor_type;location;lat;lon;timestamp;P1;durP1;ratioP1;P2;durP2;ratioP2
77726;SDS011;68312;53.502;10.030;2023-07-29T00:01:30;6.60;;;2.47;;
77726;SDS011;68312;53.502;10.030;2023-07-29T00:03:56;3.85;;;2.40;;
77726;SDS011;68312;53.502;10.030;2023-07-29T00:06:21;4.25;;;2.33;;
77726;SDS011;68312;53.502;10.030;2023-07-29T00:08:46;3.70;;;2.28;;
77726;SDS011;68312;53.502;10.030;2023-07-29T00:11:12;3.83;;;2.25;;
77726;SDS011;68312;53.502;10.030;2023-07-29T00:13:37;4.32;;;2.28;;
77726;SDS011;68312;53.502;10.030;2023-07-29T00:16:02;6.57;;;2.60;;
77726;SDS011;68312;53.502;10.030;2023-07-29T00:18:28;3.47;;;2.42;;
77726;SDS011;68312;53.502;10.030;2023-07-29T00:20:53;4.60;;;2.50;;
77726;SDS011;68312;53.502;10.030;2023-07-29T00:23:19;4.35;;;2.42;;
77726;SDS011;68312;53.502;10.030;2023-07-29T00:25:44;4.00;;;2.25;;
77726;SDS011;68312;53.502;10.030;2023-07-29T00:28:11;5.28;;;2.72;;
77726;SDS011;68312;53.502;10.030;2023-07-29T00:30:37;6.68;;;2.78;;
77726;SDS011;68312;53.502;10.030;2023-07-29T00:33:03;5.78;;;2.97;;
77726;SDS011;68312;53.502;10.030;2023-07-29T00:35:28;4.35;;;2.53;;
77726;SDS011;68312;53.502;10.030;2023-07-29T00:37:53;6.68;;;2.70;;
77726;SDS011;68312;53.502;10.030;2023-07-29T00:40:19;4.80;;;2.75;;
77726;SDS011;68312;53.502;10.030;2023-07-29T00:42:46;4.93;;;2.55;;
77726;SDS011;68312;53.502;10.030;2023-07-29T00:45:12;5.35;;;2.47;;
77726;SDS011;68312;53.502;10.030;2023-07-29T00:47:38;3.63;;;2.33;;
77726;SDS011;68312;53.502;10.030;2023-07-29T00:50:04;4.90;;;2.40;;
77726;SDS011;68312;53.502;10.030;2023-07-29T00:52:31;4.97;;;2.70;;
77726;SDS011;68312;53.502;10.030;2023-07-29T00:54:57;7.45;;;3.70;;
77726;SDS011;68312;53.502;10.030;2023-07-29T00:57:23;7.72;;;3.38;;
77726;SDS011;68312;53.502;10.030;2023-07-29T00:59:50;9.75;;;3.53;;
77726;SDS011;68312;53.502;10.030;2023-07-29T01:02:17;8.20;;;3.33;;
77726;SDS011;68312;53.502;10.030;2023-07-29T01:04:42;4.97;;;3.30;;
77726;SDS011;68312;53.502;10.030;2023-07-29T01:12:42;8.15;;;4.15;;
77726;SDS011;68312;53.502;10.030;2023-07-29T01:15:21;8.07;;;3.88;;
77726;SDS011;68312;53.502;10.030;2023-07-29T01:18:02;5.35;;;3.35;;
77726;SDS011;68312;53.502;10.030;2023-07-29T01:20:33;4.95;;;3.28;;
77726;SDS011;68312;53.502;10.030;2023-07-29T01:23:04;8.10;;;3.97;;
77726;SDS011;68312;53.502;10.030;2023-07-29T01:25:29;6.07;;;3.80;;
77726;SDS011;68312;53.502;10.030;2023-07-29T01:27:54;7.90;;;5.03;;
77726;SDS011;68312;53.502;10.030;2023-07-29T01:30:21;6.70;;;4.03;;
77726;SDS011;68312;53.502;10.030;2023-07-29T01:33:09;8.25;;;4.57;;
77726;SDS011;68312;53.502;10.030;2023-07-29T01:35:51;8.20;;;4.35;;
77726;SDS011;68312;53.502;10.030;2023-07-29T01:38:29;8.63;;;5.13;;
77726;SDS011;68312;53.502;10.030;2023-07-29T01:41:02;8.27;;;5.15;;
77726;SDS011;68312;53.502;10.030;2023-07-29T01:43:32;8.98;;;5.50;;
77726;SDS011;68312;53.502;10.030;2023-07-29T01:45:58;7.25;;;5.20;;
77726;SDS011;68312;53.502;10.030;2023-07-29T01:48:26;10.23;;;5.45;;
77726;SDS011;68312;53.502;10.030;2023-07-29T01:50:52;11.23;;;5.28;;
77726;SDS011;68312;53.502;10.030;2023-07-29T01:53:18;11.93;;;6.30;;
77726;SDS011;68312;53.502;10.030;2023-07-29T01:55:43;12.27;;;6.80;;
77726;SDS011;68312;53.502;10.030;2023-07-29T01:58:09;11.23;;;5.68;;
77726;SDS011;68312;53.502;10.030;2023-07-29T02:00:35;9.10;;;6.05;;
77726;SDS011;68312;53.502;10.030;2023-07-29T02:03:01;10.48;;;5.95;;
77726;SDS011;68312;53.502;10.030;2023-07-29T02:05:26;10.25;;;5.97;;
77726;SDS011;68312;53.502;10.030;2023-07-29T02:07:51;12.52;;;5.60;;
77726;SDS011;68312;53.502;10.030;2023-07-29T02:10:17;9.95;;;6.15;;
77726;SDS011;68312;53.502;10.030;2023-07-29T02:12:42;9.10;;;6.10;;
77726;SDS011;68312;53.502;10.030;2023-07-29T02:15:08;9.75;;;5.22;;
77726;SDS011;68312;53.502;10.030;2023-07-29T02:17:34;7.57;;;4.57;;
77726;SDS011;68312;53.502;10.030;2023-07-29T02:20:01;9.40;;;5.82;;
77726;SDS011;68312;53.502;10.030;2023-07-29T02:22:28;10.13;;;5.22;;
77726;SDS011;68312;53.502;10.030;2023-07-29T02:24:53;8.68;;;5.43;;
77726;SDS011;68312;53.502;10.030;2023-07-29T02:27:19;9.50;;;5.60;;
77726;SDS011;68312;53.502;10.030;2023-07-29T02:29:44;7.35;;;5.00;;
77726;SDS011;68312;53.502;10.030;2023-07-29T02:32:10;9.85;;;5.47;;
77726;SDS011;68312;53.502;10.030;2023-07-29T02:34:35;7.38;;;5.68;;
77726;SDS011;68312;53.502;10.030;2023-07-29T02:37:00;9.43;;;6.00;;
77726;SDS011;68312;53.502;10.030;2023-07-29T02:39:26;10.30;;;5.68;;
77726;SDS011;68312;53.502;10.030;2023-07-29T02:41:51;10.48;;;5.60;;
77726;SDS011;68312;53.502;10.030;2023-07-29T02:44:17;7.53;;;5.68;;
77726;SDS011;68312;53.502;10.030;2023-07-29T02:46:44;8.10;;;5.15;;
77726;SDS011;68312;53.502;10.030;2023-07-29T02:49:09;9.93;;;6.05;;
77726;SDS011;68312;53.502;10.030;2023-07-29T02:51:35;11.07;;;6.63;;
77726;SDS011;68312;53.502;10.030;2023-07-29T02:54:00;8.07;;;5.60;;
77726;SDS011;68312;53.502;10.030;2023-07-29T02:56:25;7.60;;;5.25;;
77726;SDS011;68312;53.502;10.030;2023-07-29T02:58:51;7.70;;;5.00;;
77726;SDS011;68312;53.502;10.030;2023-07-29T03:01:17;9.05;;;5.55;;
77726;SDS011;68312;53.502;10.030;2023-07-29T03:03:43;7.47;;;4.93;;
77726;SDS011;68312;53.502;10.030;2023-07-29T03:06:09;9.57;;;5.43;;
77726;SDS011;68312;53.502;10.030;2023-07-29T03:08:36;8.48;;;5.60;;
77726;SDS011;68312;53.502;10.030;2023-07-29T03:11:08;9.07;;;5.97;;
77726;SDS011;68312;53.502;10.030;2023-07-29T03:13:36;15.18;;;5.88;;
77726;SDS011;68312;53.502;10.030;2023-07-29T03:16:08;10.00;;;5.13;;
77726;SDS011;68312;53.502;10.030;2023-07-29T03:18:39;7.35;;;4.60;;
77726;SDS011;68312;53.502;10.030;2023-07-29T03:21:06;10.65;;;5.53;;
77726;SDS011;68312;53.502;10.030;2023-07-29T03:23:32;8.05;;;5.80;;
77726;SDS011;68312;53.502;10.030;2023-07-29T03:25:59;11.10;;;5.10;;
77726;SDS011;68312;53.502;10.030;2023-07-29T03:28:29;6.97;;;4.18;;
77726;SDS011;68312;53.502;10.030;2023-07-29T03:30:58;22.33;;;6.18;;
77726;SDS011;68312;53.502;10.030;2023-07-29T03:33:24;13.82;;;6.03;;
77726;SDS011;68312;53.502;10.030;2023-07-29T03:35:53;13.93;;;6.15;;
77726;SDS011;68312;53.502;10.030;2023-07-29T03:38:18;8.55;;;5.68;;
77726;SDS011;68312;53.502;10.030;2023-07-29T03:40:44;10.52;;;6.13;;
77726;SDS011;68312;53.502;10.030;2023-07-29T03:43:09;6.82;;;4.50;;
77726;SDS011;68312;53.502;10.030;2023-07-29T03:45:35;9.63;;;5.38;;
77726;SDS011;68312;53.502;10.030;2023-07-29T03:48:01;10.35;;;5.80;;
77726;SDS011;68312;53.502;10.030;2023-07-29T03:50:28;9.57;;;5.75;;
77726;SDS011;68312;53.502;10.030;2023-07-29T03:52:55;9.05;;;5.45;;
77726;SDS011;68312;53.502;10.030;2023-07-29T03:55:22;10.93;;;6.85;;
77726;SDS011;68312;53.502;10.030;2023-07-29T03:57:47;13.50;;;7.70;;
77726;SDS011;68312;53.502;10.030;2023-07-29T04:00:13;10.00;;;6.68;;
77726;SDS011;68312;53.502;10.030;2023-07-29T04:02:39;11.70;;;7.65;;
77726;SDS011;68312;53.502;10.030;2023-07-29T04:05:05;13.18;;;6.90;;
77726;SDS011;68312;53.502;10.030;2023-07-29T04:07:34;13.40;;;7.10;;
77726;SDS011;68312;53.502;10.030;2023-07-29T04:10:00;13.95;;;6.75;;
77726;SDS011;68312;53.502;10.030;2023-07-29T04:12:26;11.85;;;6.63;;
77726;SDS011;68312;53.502;10.030;2023-07-29T04:14:52;11.38;;;6.78;;
77726;SDS011;68312;53.502;10.030;2023-07-29T04:17:17;11.93;;;6.97;;
77726;SDS011;68312;53.502;10.030;2023-07-29T04:19:43;12.77;;;6.07;;
77726;SDS011;68312;53.502;10.030;2023-07-29T04:22:08;16.67;;;6.00;;
77726;SDS011;68312;53.502;10.030;2023-07-29T04:24:34;13.40;;;7.50;;
77726;SDS011;68312;53.502;10.030;2023-07-29T04:26:59;8.52;;;5.75;;
77726;SDS011;68312;53.502;10.030;2023-07-29T04:29:25;9.75;;;6.07;;
77726;SDS011;68312;53.502;10.030;2023-07-29T04:31:50;11.35;;;6.88;;
77726;SDS011;68312;53.502;10.030;2023-07-29T04:34:17;10.32;;;6.32;;
77726;SDS011;68312;53.502;10.030;2023-07-29T04:36:44;8.18;;;5.40;;
77726;SDS011;68312;53.502;10.030;2023-07-29T04:39:15;8.63;;;5.10;;
77726;SDS011;68312;53.502;10.030;2023-07-29T04:41:40;14.07;;;7.50;;
77726;SDS011;68312;53.502;10.030;2023-07-29T04:44:06;11.15;;;6.75;;
77726;SDS011;68312;53.502;10.030;2023-07-29T04:46:32;10.57;;;6.88;;
77726;SDS011;68312;53.502;10.030;2023-07-29T04:48:58;10.25;;;6.00;;
77726;SDS011;68312;53.502;10.030;2023-07-29T04:51:23;11.13;;;6.97;;
77726;SDS011;68312;53.502;10.030;2023-07-29T04:53:49;12.63;;;8.00;;
77726;SDS011;68312;53.502;10.030;2023-07-29T04:59:55;12.90;;;7.70;;
77726;SDS011;68312;53.502;10.030;2023-07-29T05:02:21;8.13;;;5.60;;
77726;SDS011;68312;53.502;10.030;2023-07-29T05:04:46;10.93;;;7.55;;
77726;SDS011;68312;53.502;10.030;2023-07-29T05:07:11;10.77;;;6.80;;
77726;SDS011;68312;53.502;10.030;2023-07-29T05:09:37;14.80;;;7.53;;
77726;SDS011;68312;53.502;10.030;2023-07-29T05:12:02;16.45;;;9.10;;
77726;SDS011;68312;53.502;10.030;2023-07-29T05:14:28;15.73;;;9.52;;
77726;SDS011;68312;53.502;10.030;2023-07-29T05:16:53;18.02;;;9.77;;
77726;SDS011;68312;53.502;10.030;2023-07-29T05:19:19;15.15;;;9.77;;
77726;SDS011;68312;53.502;10.030;2023-07-29T05:21:45;12.55;;;8.38;;
77726;SDS011;68312;53.502;10.030;2023-07-29T05:24:10;16.55;;;10.27;;
77726;SDS011;68312;53.502;10.030;2023-07-29T05:26:36;16.77;;;10.40;;
77726;SDS011;68312;53.502;10.030;2023-07-29T05:29:01;14.80;;;8.73;;
77726;SDS011;68312;53.502;10.030;2023-07-29T05:31:27;16.25;;;8.93;;
77726;SDS011;68312;53.502;10.030;2023-07-29T05:33:52;16.38;;;10.20;;
77726;SDS011;68312;53.502;10.030;2023-07-29T05:36:18;15.63;;;9.35;;
77726;SDS011;68312;53.502;10.030;2023-07-29T05:41:53;19.77;;;11.48;;
77726;SDS011;68312;53.502;10.030;2023-07-29T05:44:19;20.42;;;12.25;;
77726;SDS011;68312;53.502;10.030;2023-07-29T05:46:45;21.60;;;12.73;;
77726;SDS011;68312;53.502;10.030;2023-07-29T05:49:10;20.50;;;11.77;;
77726;SDS011;68312;53.502;10.030;2023-07-29T05:51:36;19.85;;;11.27;;
77726;SDS011;68312;53.502;10.030;2023-07-29T05:54:02;17.92;;;11.20;;
77726;SDS011;68312;53.502;10.030;2023-07-29T05:56:27;19.45;;;11.02;;
77726;SDS011;68312;53.502;10.030;2023-07-29T05:58:53;22.48;;;12.50;;
77726;SDS011;68312;53.502;10.030;2023-07-29T06:01:18;18.42;;;11.10;;
77726;SDS011;68312;53.502;10.030;2023-07-29T06:03:46;17.73;;;11.57;;
77726;SDS011;68312;53.502;10.030;2023-07-29T06:06:12;19.02;;;12.38;;
77726;SDS011;68312;53.502;10.030;2023-07-29T06:08:37;18.33;;;10.07;;
77726;SDS011;68312;53.502;10.030;2023-07-29T06:11:02;18.95;;;10.95;;
77726;SDS011;68312;53.502;10.030;2023-07-29T06:13:28;19.25;;;11.73;;
77726;SDS011;68312;53.502;10.030;2023-07-29T06:19:26;21.33;;;12.05;;
77726;SDS011;68312;53.502;10.030;2023-07-29T06:21:51;22.17;;;13.18;;
77726;SDS011;68312;53.502;10.030;2023-07-29T06:24:20;17.20;;;11.55;;
77726;SDS011;68312;53.502;10.030;2023-07-29T06:26:46;19.63;;;11.65;;
77726;SDS011;68312;53.502;10.030;2023-07-29T06:29:11;19.10;;;11.02;;
77726;SDS011;68312;53.502;10.030;2023-07-29T06:31:36;17.80;;;10.57;;
77726;SDS011;68312;53.502;10.030;2023-07-29T06:34:02;21.73;;;11.50;;
77726;SDS011;68312;53.502;10.030;2023-07-29T06:36:27;20.23;;;11.70;;
77726;SDS011;68312;53.502;10.030;2023-07-29T06:38:53;17.27;;;10.48;;
77726;SDS011;68312;53.502;10.030;2023-07-29T06:41:18;19.33;;;11.00;;
77726;SDS011;68312;53.502;10.030;2023-07-29T06:43:43;18.08;;;11.20;;
77726;SDS011;68312;53.502;10.030;2023-07-29T06:46:09;18.30;;;11.00;;
77726;SDS011;68312;53.502;10.030;2023-07-29T06:48:34;18.13;;;10.43;;
77726;SDS011;68312;53.502;10.030;2023-07-29T06:50:59;19.27;;;10.43;;
77726;SDS011;68312;53.502;10.030;2023-07-29T06:53:25;19.92;;;11.35;;
77726;SDS011;68312;53.502;10.030;2023-07-29T06:55:51;18.02;;;11.52;;
77726;SDS011;68312;53.502;10.030;2023-07-29T06:58:17;18.73;;;11.00;;
77726;SDS011;68312;53.502;10.030;2023-07-29T07:00:42;18.33;;;10.88;;
77726;SDS011;68312;53.502;10.030;2023-07-29T07:03:07;19.70;;;11.75;;
77726;SDS011;68312;53.502;10.030;2023-07-29T07:05:33;19.33;;;11.68;;
77726;SDS011;68312;53.502;10.030;2023-07-29T07:07:58;20.00;;;11.65;;
77726;SDS011;68312;53.502;10.030;2023-07-29T07:10:23;19.83;;;12.55;;
77726;SDS011;68312;53.502;10.030;2023-07-29T07:12:49;21.15;;;12.27;;
77726;SDS011;68312;53.502;10.030;2023-07-29T07:15:14;19.92;;;12.73;;
77726;SDS011;68312;53.502;10.030;2023-07-29T07:17:39;19.05;;;12.13;;
77726;SDS011;68312;53.502;10.030;2023-07-29T07:20:05;20.25;;;13.15;;
77726;SDS011;68312;53.502;10.030;2023-07-29T07:22:31;21.50;;;12.30;;
77726;SDS011;68312;53.502;10.030;2023-07-29T07:24:57;19.73;;;11.38;;
77726;SDS011;68312;53.502;10.030;2023-07-29T07:27:23;19.05;;;10.50;;
77726;SDS011;68312;53.502;10.030;2023-07-29T07:29:49;18.77;;;11.93;;
77726;SDS011;68312;53.502;10.030;2023-07-29T07:32:14;16.67;;;9.80;;
77726;SDS011;68312;53.502;10.030;2023-07-29T07:34:39;17.60;;;9.77;;
77726;SDS011;68312;53.502;10.030;2023-07-29T07:37:05;12.88;;;9.10;;
77726;SDS011;68312;53.502;10.030;2023-07-29T07:39:31;14.48;;;9.40;;
77726;SDS011;68312;53.502;10.030;2023-07-29T07:41:58;19.48;;;9.70;;
77726;SDS011;68312;53.502;10.030;2023-07-29T07:44:24;13.65;;;9.30;;
77726;SDS011;68312;53.502;10.030;2023-07-29T07:46:51;11.60;;;8.68;;
77726;SDS011;68312;53.502;10.030;2023-07-29T07:49:18;13.23;;;8.50;;
77726;SDS011;68312;53.502;10.030;2023-07-29T07:51:44;12.52;;;7.78;;
77726;SDS011;68312;53.502;10.030;2023-07-29T07:54:09;12.48;;;7.50;;
77726;SDS011;68312;53.502;10.030;2023-07-29T07:56:35;13.23;;;7.45;;
77726;SDS011;68312;53.502;10.030;2023-07-29T07:59:00;9.85;;;7.25;;
77726;SDS011;68312;53.502;10.030;2023-07-29T08:01:26;13.90;;;7.38;;
77726;SDS011;68312;53.502;10.030;2023-07-29T08:03:51;11.35;;;7.40;;
77726;SDS011;68312;53.502;10.030;2023-07-29T08:06:16;10.98;;;7.38;;
77726;SDS011;68312;53.502;10.030;2023-07-29T08:08:42;11.15;;;7.18;;
77726;SDS011;68312;53.502;10.030;2023-07-29T08:11:07;10.85;;;7.05;;
77726;SDS011;68312;53.502;10.030;2023-07-29T08:13:33;10.43;;;7.10;;
77726;SDS011;68312;53.502;10.030;2023-07-29T08:15:58;9.60;;;6.80;;
77726;SDS011;68312;53.502;10.030;2023-07-29T08:18:23;11.07;;;7.05;;
77726;SDS011;68312;53.502;10.030;2023-07-29T08:20:59;9.40;;;6.30;;
77726;SDS011;68312;53.502;10.030;2023-07-29T08:23:32;9.80;;;7.05;;
77726;SDS011;68312;53.502;10.030;2023-07-29T08:26:00;10.70;;;7.43;;
77726;SDS011;68312;53.502;10.030;2023-07-29T08:28:36;10.23;;;6.63;;
77726;SDS011;68312;53.502;10.030;2023-07-29T08:31:04;10.43;;;6.65;;
77726;SDS011;68312;53.502;10.030;2023-07-29T08:33:31;9.48;;;6.03;;
77726;SDS011;68312;53.502;10.030;2023-07-29T08:35:58;11.02;;;6.80;;
77726;SDS011;68312;53.502;10.030;2023-07-29T08:38:24;11.25;;;6.53;;
77726;SDS011;68312;53.502;10.030;2023-07-29T08:40:50;11.40;;;6.53;;
77726;SDS011;68312;53.502;10.030;2023-07-29T08:43:52;11.55;;;6.30;;
77726;SDS011;68312;53.502;10.030;2023-07-29T08:46:38;9.52;;;6.75;;
77726;SDS011;68312;53.502;10.030;2023-07-29T08:49:04;9.00;;;6.55;;
77726;SDS011;68312;53.502;10.030;2023-07-29T08:51:31;11.25;;;7.25;;
77726;SDS011;68312;53.502;10.030;2023-07-29T08:53:58;10.70;;;7.28;;
77726;SDS011;68312;53.502;10.030;2023-07-29T08:56:25;13.75;;;7.03;;
77726;SDS011;68312;53.502;10.030;2023-07-29T08:58:50;9.43;;;6.13;;
77726;SDS011;68312;53.502;10.030;2023-07-29T09:01:17;9.27;;;6.43;;
77726;SDS011;68312;53.502;10.030;2023-07-29T09:03:42;10.80;;;6.85;;
77726;SDS011;68312;53.502;10.030;2023-07-29T09:06:08;11.95;;;6.32;;
77726;SDS011;68312;53.502;10.030;2023-07-29T09:08:34;11.63;;;7.75;;
77726;SDS011;68312;53.502;10.030;2023-07-29T09:10:59;9.52;;;6.72;;
77726;SDS011;68312;53.502;10.030;2023-07-29T09:13:25;10.77;;;6.95;;
77726;SDS011;68312;53.502;10.030;2023-07-29T09:15:54;10.70;;;6.80;;
77726;SDS011;68312;53.502;10.030;2023-07-29T09:18:22;8.13;;;5.95;;
77726;SDS011;68312;53.502;10.030;2023-07-29T09:20:48;11.00;;;5.95;;
77726;SDS011;68312;53.502;10.030;2023-07-29T09:23:15;8.82;;;6.57;;
77726;SDS011;68312;53.502;10.030;2023-07-29T09:25:41;9.45;;;6.50;;
77726;SDS011;68312;53.502;10.030;2023-07-29T09:28:10;10.77;;;6.00;;
77726;SDS011;68312;53.502;10.030;2023-07-29T09:30:41;9.13;;;5.82;;
77726;SDS011;68312;53.502;10.030;2023-07-29T09:33:11;8.98;;;6.07;;
77726;SDS011;68312;53.502;10.030;2023-07-29T09:35:37;7.82;;;5.47;;
77726;SDS011;68312;53.502;10.030;2023-07-29T09:38:04;9.13;;;6.07;;
77726;SDS011;68312;53.502;10.030;2023-07-29T09:40:37;9.25;;;5.80;;
77726;SDS011;68312;53.502;10.030;2023-07-29T09:43:04;8.25;;;5.32;;
77726;SDS011;68312;53.502;10.030;2023-07-29T09:45:32;6.95;;;4.55;;
77726;SDS011;68312;53.502;10.030;2023-07-29T09:48:00;7.70;;;4.90;;
77726;SDS011;68312;53.502;10.030;2023-07-29T09:50:27;6.95;;;4.28;;
77726;SDS011;68312;53.502;10.030;2023-07-29T09:52:54;8.25;;;5.20;;
77726;SDS011;68312;53.502;10.030;2023-07-29T09:55:21;8.27;;;4.53;;
77726;SDS011;68312;53.502;10.030;2023-07-29T09:57:57;5.68;;;4.32;;
77726;SDS011;68312;53.502;10.030;2023-07-29T10:00:29;6.18;;;3.78;;
77726;SDS011;68312;53.502;10.030;2023-07-29T10:02:59;5.40;;;3.90;;
77726;SDS011;68312;53.502;10.030;2023-07-29T10:05:26;7.75;;;3.92;;
77726;SDS011;68312;53.502;10.030;2023-07-29T10:07:53;6.13;;;3.33;;
77726;SDS011;68312;53.502;10.030;2023-07-29T10:10:20;6.38;;;3.50;;
77726;SDS011;68312;53.502;10.030;2023-07-29T10:12:46;3.92;;;3.03;;
77726;SDS011;68312;53.502;10.030;2023-07-29T10:15:12;4.10;;;2.95;;
77726;SDS011;68312;53.502;10.030;2023-07-29T10:17:39;3.42;;;2.55;;
77726;SDS011;68312;53.502;10.030;2023-07-29T10:20:05;5.63;;;1.90;;
77726;SDS011;68312;53.502;10.030;2023-07-29T10:22:37;3.17;;;1.90;;
77726;SDS011;68312;53.502;10.030;2023-07-29T10:25:17;3.40;;;2.05;;
77726;SDS011;68312;53.502;10.030;2023-07-29T10:27:48;4.35;;;1.73;;
77726;SDS011;68312;53.502;10.030;2023-07-29T10:30:18;3.60;;;2.13;;
77726;SDS011;68312;53.502;10.030;2023-07-29T10:32:44;2.97;;;1.70;;
77726;SDS011;68312;53.502;10.030;2023-07-29T10:35:13;2.95;;;1.90;;
77726;SDS011;68312;53.502;10.030;2023-07-29T10:37:41;3.60;;;1.90;;
77726;SDS011;68312;53.502;10.030;2023-07-29T10:40:08;3.08;;;1.73;;
77726;SDS011;68312;53.502;10.030;2023-07-29T10:42:38;3.42;;;2.70;;
77726;SDS011;68312;53.502;10.030;2023-07-29T10:45:23;4.70;;;2.10;;
77726;SDS011;68312;53.502;10.030;2023-07-29T10:47:49;2.53;;;1.70;;
77726;SDS011;68312;53.502;10.030;2023-07-29T10:53:56;5.35;;;2.78;;
77726;SDS011;68312;53.502;10.030;2023-07-29T10:56:39;4.00;;;1.90;;
77726;SDS011;68312;53.502;10.030;2023-07-29T11:01:42;3.45;;;1.80;;
77726;SDS011;68312;53.502;10.030;2023-07-29T11:07:01;2.08;;;1.60;;
77726;SDS011;68312;53.502;10.030;2023-07-29T11:17:56;2.38;;;1.60;;
77726;SDS011;68312;53.502;10.030;2023-07-29T11:20:25;4.47;;;1.52;;
77726;SDS011;68312;53.502;10.030;2023-07-29T11:22:54;3.88;;;1.70;;
77726;SDS011;68312;53.502;10.030;2023-07-29T11:25:23;2.78;;;1.95;;
77726;SDS011;68312;53.502;10.030;2023-07-29T11:27:52;3.30;;;2.10;;
77726;SDS011;68312;53.502;10.030;2023-07-29T11:30:20;2.42;;;1.80;;
77726;SDS011;68312;53.502;10.030;2023-07-29T11:32:46;2.80;;;2.10;;
77726;SDS011;68312;53.502;10.030;2023-07-29T11:35:16;2.60;;;1.95;;
77726;SDS011;68312;53.502;10.030;2023-07-29T11:37:53;4.75;;;2.15;;
77726;SDS011;68312;53.502;10.030;2023-07-29T11:44:02;4.72;;;2.78;;
77726;SDS011;68312;53.502;10.030;2023-07-29T11:46:27;4.40;;;2.30;;
77726;SDS011;68312;53.502;10.030;2023-07-29T11:48:56;4.63;;;2.65;;
77726;SDS011;68312;53.502;10.030;2023-07-29T11:51:21;3.72;;;2.40;;
77726;SDS011;68312;53.502;10.030;2023-07-29T11:53:47;5.57;;;3.05;;
77726;SDS011;68312;53.502;10.030;2023-07-29T11:56:13;5.75;;;2.78;;
77726;SDS011;68312;53.502;10.030;2023-07-29T11:58:39;5.18;;;2.97;;
77726;SDS011;68312;53.502;10.030;2023-07-29T12:01:04;3.78;;;2.50;;
77726;SDS011;68312;53.502;10.030;2023-07-29T12:07:11;6.75;;;2.58;;
77726;SDS011;68312;53.502;10.030;2023-07-29T12:09:37;3.55;;;2.33;;
77726;SDS011;68312;53.502;10.030;2023-07-29T12:12:04;2.90;;;1.90;;
77726;SDS011;68312;53.502;10.030;2023-07-29T12:14:32;5.97;;;2.00;;
77726;SDS011;68312;53.502;10.030;2023-07-29T12:17:01;3.42;;;1.90;;
77726;SDS011;68312;53.502;10.030;2023-07-29T12:19:33;3.58;;;1.88;;
77726;SDS011;68312;53.502;10.030;2023-07-29T12:22:03;2.95;;;1.75;;
77726;SDS011;68312;53.502;10.030;2023-07-29T12:24:31;3.35;;;2.00;;
77726;SDS011;68312;53.502;10.030;2023-07-29T12:26:59;2.88;;;1.80;;
77726;SDS011;68312;53.502;10.030;2023-07-29T12:29:25;2.58;;;1.50;;
77726;SDS011;68312;53.502;10.030;2023-07-29T12:32:01;3.20;;;1.77;;
77726;SDS011;68312;53.502;10.030;2023-07-29T12:34:29;4.65;;;1.63;;
77726;SDS011;68312;53.502;10.030;2023-07-29T12:36:57;3.35;;;1.60;;
77726;SDS011;68312;53.502;10.030;2023-07-29T12:39:27;2.88;;;1.80;;
77726;SDS011;68312;53.502;10.030;2023-07-29T12:41:56;2.63;;;1.83;;
77726;SDS011;68312;53.502;10.030;2023-07-29T12:44:23;3.13;;;1.58;;
77726;SDS011;68312;53.502;10.030;2023-07-29T12:46:55;5.18;;;2.28;;
77726;SDS011;68312;53.502;10.030;2023-07-29T12:49:20;3.35;;;1.48;;
77726;SDS011;68312;53.502;10.030;2023-07-29T12:51:47;2.45;;;1.50;;
77726;SDS011;68312;53.502;10.030;2023-07-29T12:54:12;2.50;;;1.52;;
77726;SDS011;68312;53.502;10.030;2023-07-29T13:00:18;2.13;;;1.40;;
77726;SDS011;68312;53.502;10.030;2023-07-29T13:02:44;2.45;;;1.40;;
77726;SDS011;68312;53.502;10.030;2023-07-29T13:05:10;2.70;;;1.40;;
77726;SDS011;68312;53.502;10.030;2023-07-29T13:07:37;3.25;;;1.42;;
77726;SDS011;68312;53.502;10.030;2023-07-29T13:10:04;2.28;;;1.48;;
77726;SDS011;68312;53.502;10.030;2023-07-29T13:12:30;2.40;;;1.80;;
77726;SDS011;68312;53.502;10.030;2023-07-29T13:14:56;2.97;;;1.67;;
77726;SDS011;68312;53.502;10.030;2023-07-29T13:17:22;3.40;;;1.50;;
77726;SDS011;68312;53.502;10.030;2023-07-29T13:19:48;3.28;;;1.70;;
77726;SDS011;68312;53.502;10.030;2023-07-29T13:22:13;2.17;;;1.77;;
77726;SDS011;68312;53.502;10.030;2023-07-29T13:24:39;2.42;;;1.55;;
77726;SDS011;68312;53.502;10.030;2023-07-29T13:27:04;3.28;;;1.50;;
77726;SDS011;68312;53.502;10.030;2023-07-29T13:29:30;2.22;;;1.40;;
77726;SDS011;68312;53.502;10.030;2023-07-29T13:31:55;1.90;;;1.40;;
77726;SDS011;68312;53.502;10.030;2023-07-29T13:34:21;3.65;;;1.50;;
77726;SDS011;68312;53.502;10.030;2023-07-29T13:36:46;2.28;;;1.45;;
77726;SDS011;68312;53.502;10.030;2023-07-29T13:39:12;4.45;;;1.90;;
77726;SDS011;68312;53.502;10.030;2023-07-29T13:41:37;3.63;;;1.70;;
77726;SDS011;68312;53.502;10.030;2023-07-29T13:44:03;2.40;;;1.50;;
77726;SDS011;68312;53.502;10.030;2023-07-29T13:46:28;3.75;;;1.33;;
77726;SDS011;68312;53.502;10.030;2023-07-29T13:48:54;3.78;;;1.80;;
77726;SDS011;68312;53.502;10.030;2023-07-29T13:51:19;3.05;;;1.60;;
77726;SDS011;68312;53.502;10.030;2023-07-29T13:53:44;2.67;;;1.50;;
77726;SDS011;68312;53.502;10.030;2023-07-29T13:56:10;4.43;;;1.90;;
77726;SDS011;68312;53.502;10.030;2023-07-29T13:58:35;3.92;;;1.98;;
77726;SDS011;68312;53.502;10.030;2023-07-29T14:01:00;3.38;;;1.80;;
77726;SDS011;68312;53.502;10.030;2023-07-29T14:03:26;3.03;;;1.63;;
77726;SDS011;68312;53.502;10.030;2023-07-29T14:05:51;4.15;;;2.08;;
77726;SDS011;68312;53.502;10.030;2023-07-29T14:08:17;5.15;;;1.95;;
77726;SDS011;68312;53.502;10.030;2023-07-29T14:10:42;3.38;;;1.67;;
77726;SDS011;68312;53.502;10.030;2023-07-29T14:13:07;3.38;;;1.60;;
77726;SDS011;68312;53.502;10.030;2023-07-29T14:15:33;3.50;;;1.50;;
77726;SDS011;68312;53.502;10.030;2023-07-29T14:17:58;2.85;;;1.58;;
77726;SDS011;68312;53.502;10.030;2023-07-29T14:20:24;2.65;;;1.50;;
77726;SDS011;68312;53.502;10.030;2023-07-29T14:22:49;2.72;;;1.60;;
77726;SDS011;68312;53.502;10.030;2023-07-29T14:25:14;3.75;;;1.48;;
77726;SDS011;68312;53.502;10.030;2023-07-29T14:27:40;2.58;;;1.38;;
77726;SDS011;68312;53.502;10.030;2023-07-29T14:30:06;3.35;;;1.65;;
77726;SDS011;68312;53.502;10.030;2023-07-29T14:32:32;2.60;;;1.40;;
77726;SDS011;68312;53.502;10.030;2023-07-29T14:34:58;3.65;;;1.38;;
77726;SDS011;68312;53.502;10.030;2023-07-29T14:37:28;2.28;;;1.25;;
77726;SDS011;68312;53.502;10.030;2023-07-29T14:39:54;2.72;;;1.20;;
77726;SDS011;68312;53.502;10.030;2023-07-29T14:42:19;2.00;;;1.20;;
77726;SDS011;68312;53.502;10.030;2023-07-29T14:44:44;1.73;;;1.13;;
77726;SDS011;68312;53.502;10.030;2023-07-29T14:47:10;3.97;;;1.33;;
77726;SDS011;68312;53.502;10.030;2023-07-29T14:49:35;2.58;;;1.20;;
77726;SDS011;68312;53.502;10.030;2023-07-29T14:55:03;2.47;;;1.40;;
77726;SDS011;68312;53.502;10.030;2023-07-29T14:57:29;5.45;;;1.23;;
77726;SDS011;68312;53.502;10.030;2023-07-29T14:59:55;2.88;;;1.38;;
77726;SDS011;68312;53.502;10.030;2023-07-29T15:02:20;2.75;;;1.17;;
77726;SDS011;68312;53.502;10.030;2023-07-29T15:04:47;2.30;;;1.20;;
77726;SDS011;68312;53.502;10.030;2023-07-29T15:07:13;2.72;;;1.20;;
77726;SDS011;68312;53.502;10.030;2023-07-29T15:09:38;5.07;;;1.17;;
77726;SDS011;68312;53.502;10.030;2023-07-29T15:12:03;2.72;;;1.35;;
77726;SDS011;68312;53.502;10.030;2023-07-29T15:14:29;2.72;;;1.30;;